sensor_id;sensor_type;location;lat;lon;timestamp;P1;durP1;ratioP1;P2;durP2;ratioP2
4084;SDS011;2057;50.858;6.572;2023-03-04T00:00:25;98.33;;;41.83;;
4084;SDS011;2057;50.858;6.572;2023-03-04T00:02:50;112.70;;;38.00;;
4084;SDS011;2057;50.858;6.572;2023-03-04T00:05:18;115.83;;;38.57;;
4084;SDS011;2057;50.858;6.572;2023-03-04T00:07:44;124.65;;;38.75;;
4084;SDS011;2057;50.858;6.572;2023-03-04T00:10:09;93.00;;;36.40;;
4084;SDS011;2057;50.858;6.572;2023-03-04T00:12:37;86.85;;;35.80;;
4084;SDS011;2057;50.858;6.572;2023-03-04T00:15:03;99.43;;;35.30;;
4084;SDS011;2057;50.858;6.572;2023-03-04T00:17:28;99.20;;;38.70;;
4084;SDS011;2057;50.858;6.572;2023-03-04T00:19:55;99.90;;;38.00;;
4084;SDS011;2057;50.858;6.572;2023-03-04T00:22:23;100.45;;;39.78;;
4084;SDS011;2057;50.858;6.572;2023-03-04T00:24:48;86.73;;;34.20;;
4084;SDS011;2057;50.858;6.572;2023-03-04T00:27:14;121.27;;;41.30;;
4084;SDS011;2057;50.858;6.572;2023-03-04T00:29:39;95.97;;;38.07;;
4084;SDS011;2057;50.858;6.572;2023-03-04T00:32:05;103.67;;;35.83;;
4084;SDS011;2057;50.858;6.572;2023-03-04T00:34:30;96.87;;;37.60;;
4084;SDS011;2057;50.858;6.572;2023-03-04T00:36:55;107.77;;;36.37;;
4084;SDS011;2057;50.858;6.572;2023-03-04T00:39:25;94.43;;;35.72;;
4084;SDS011;2057;50.858;6.572;2023-03-04T00:41:52;93.20;;;33.88;;
4084;SDS011;2057;50.858;6.572;2023-03-04T00:44:17;93.37;;;35.40;;
4084;SDS011;2057;50.858;6.572;2023-03-04T00:46:42;85.97;;;32.63;;
4084;SDS011;2057;50.858;6.572;2023-03-04T00:49:08;90.57;;;35.63;;
4084;SDS011;2057;50.858;6.572;2023-03-04T00:51:33;92.90;;;34.33;;
4084;SDS011;2057;50.858;6.572;2023-03-04T00:53:58;81.00;;;31.73;;
4084;SDS011;2057;50.858;6.572;2023-03-04T00:56:24;80.00;;;32.60;;
4084;SDS011;2057;50.858;6.572;2023-03-04T00:58:51;88.78;;;33.05;;
4084;SDS011;2057;50.858;6.572;2023-03-04T01:01:17;88.03;;;32.43;;
4084;SDS011;2057;50.858;6.572;2023-03-04T01:03:42;88.40;;;32.90;;
4084;SDS011;2057;50.858;6.572;2023-03-04T01:06:11;89.82;;;30.85;;
4084;SDS011;2057;50.858;6.572;2023-03-04T01:08:37;103.70;;;33.13;;
4084;SDS011;2057;50.858;6.572;2023-03-04T01:11:02;88.97;;;33.23;;
4084;SDS011;2057;50.858;6.572;2023-03-04T01:13:28;92.00;;;34.00;;
4084;SDS011;2057;50.858;6.572;2023-03-04T01:15:53;89.40;;;33.20;;
4084;SDS011;2057;50.858;6.572;2023-03-04T01:18:19;80.15;;;33.40;;
4084;SDS011;2057;50.858;6.572;2023-03-04T01:20:45;92.03;;;32.43;;
4084;SDS011;2057;50.858;6.572;2023-03-04T01:23:10;78.60;;;31.87;;
4084;SDS011;2057;50.858;6.572;2023-03-04T01:25:36;72.73;;;29.20;;
4084;SDS011;2057;50.858;6.572;2023-03-04T01:28:01;76.10;;;28.10;;
4084;SDS011;2057;50.858;6.572;2023-03-04T01:30:27;99.03;;;33.27;;
4084;SDS011;2057;50.858;6.572;2023-03-04T01:32:52;95.20;;;28.33;;
4084;SDS011;2057;50.858;6.572;2023-03-04T01:35:18;87.43;;;30.67;;
4084;SDS011;2057;50.858;6.572;2023-03-04T01:37:43;69.43;;;27.20;;
4084;SDS011;2057;50.858;6.572;2023-03-04T01:40:09;82.13;;;29.73;;
4084;SDS011;2057;50.858;6.572;2023-03-04T01:42:35;75.80;;;29.08;;
4084;SDS011;2057;50.858;6.572;2023-03-04T01:45:00;79.93;;;25.97;;
4084;SDS011;2057;50.858;6.572;2023-03-04T01:47:29;64.05;;;23.10;;
4084;SDS011;2057;50.858;6.572;2023-03-04T01:49:56;65.72;;;24.85;;
4084;SDS011;2057;50.858;6.572;2023-03-04T01:52:22;62.30;;;25.87;;
4084;SDS011;2057;50.858;6.572;2023-03-04T01:54:50;75.20;;;25.17;;
4084;SDS011;2057;50.858;6.572;2023-03-04T01:57:19;70.33;;;27.50;;
4084;SDS011;2057;50.858;6.572;2023-03-04T01:59:47;72.25;;;26.60;;
4084;SDS011;2057;50.858;6.572;2023-03-04T02:02:32;70.20;;;26.80;;
4084;SDS011;2057;50.858;6.572;2023-03-04T02:04:57;63.83;;;25.87;;
4084;SDS011;2057;50.858;6.572;2023-03-04T02:07:23;63.17;;;25.00;;
4084;SDS011;2057;50.858;6.572;2023-03-04T02:09:48;62.80;;;25.87;;
4084;SDS011;2057;50.858;6.572;2023-03-04T02:12:13;59.17;;;25.40;;
4084;SDS011;2057;50.858;6.572;2023-03-04T02:14:39;60.67;;;24.70;;
4084;SDS011;2057;50.858;6.572;2023-03-04T02:17:08;62.87;;;23.80;;
4084;SDS011;2057;50.858;6.572;2023-03-04T02:22:17;62.88;;;22.52;;
4084;SDS011;2057;50.858;6.572;2023-03-04T02:24:53;66.03;;;25.80;;
4084;SDS011;2057;50.858;6.572;2023-03-04T02:27:28;63.97;;;21.05;;
4084;SDS011;2057;50.858;6.572;2023-03-04T02:29:54;59.10;;;21.27;;
4084;SDS011;2057;50.858;6.572;2023-03-04T02:32:19;73.23;;;20.67;;
4084;SDS011;2057;50.858;6.572;2023-03-04T02:34:45;48.70;;;20.53;;
4084;SDS011;2057;50.858;6.572;2023-03-04T02:37:13;62.95;;;22.52;;
4084;SDS011;2057;50.858;6.572;2023-03-04T02:39:41;53.33;;;20.65;;
4084;SDS011;2057;50.858;6.572;2023-03-04T02:42:08;63.88;;;22.60;;
4084;SDS011;2057;50.858;6.572;2023-03-04T02:44:36;61.07;;;19.67;;
4084;SDS011;2057;50.858;6.572;2023-03-04T02:47:08;59.42;;;20.10;;
4084;SDS011;2057;50.858;6.572;2023-03-04T02:49:35;47.78;;;19.23;;
4084;SDS011;2057;50.858;6.572;2023-03-04T02:52:06;59.85;;;19.83;;
4084;SDS011;2057;50.858;6.572;2023-03-04T02:54:33;53.40;;;21.92;;
4084;SDS011;2057;50.858;6.572;2023-03-04T02:57:05;58.37;;;21.30;;
4084;SDS011;2057;50.858;6.572;2023-03-04T02:59:32;70.03;;;19.63;;
4084;SDS011;2057;50.858;6.572;2023-03-04T03:01:57;48.67;;;19.60;;
4084;SDS011;2057;50.858;6.572;2023-03-04T03:04:23;54.07;;;19.40;;
4084;SDS011;2057;50.858;6.572;2023-03-04T03:06:49;56.97;;;17.83;;
4084;SDS011;2057;50.858;6.572;2023-03-04T03:09:15;56.87;;;17.27;;
4084;SDS011;2057;50.858;6.572;2023-03-04T03:11:40;46.20;;;16.70;;
4084;SDS011;2057;50.858;6.572;2023-03-04T03:14:06;63.00;;;19.17;;
4084;SDS011;2057;50.858;6.572;2023-03-04T03:16:32;52.10;;;17.97;;
4084;SDS011;2057;50.858;6.572;2023-03-04T03:18:57;63.87;;;18.17;;
4084;SDS011;2057;50.858;6.572;2023-03-04T03:21:22;53.73;;;17.07;;
4084;SDS011;2057;50.858;6.572;2023-03-04T03:23:48;50.77;;;17.13;;
4084;SDS011;2057;50.858;6.572;2023-03-04T03:26:16;44.90;;;17.45;;
4084;SDS011;2057;50.858;6.572;2023-03-04T03:28:44;48.70;;;18.92;;
4084;SDS011;2057;50.858;6.572;2023-03-04T03:31:10;58.50;;;18.33;;
4084;SDS011;2057;50.858;6.572;2023-03-04T03:33:35;54.63;;;18.97;;
4084;SDS011;2057;50.858;6.572;2023-03-04T03:36:00;40.60;;;17.30;;
4084;SDS011;2057;50.858;6.572;2023-03-04T03:38:26;51.97;;;17.07;;
4084;SDS011;2057;50.858;6.572;2023-03-04T03:40:51;47.67;;;17.57;;
4084;SDS011;2057;50.858;6.572;2023-03-04T03:43:17;41.20;;;15.87;;
4084;SDS011;2057;50.858;6.572;2023-03-04T03:45:43;44.00;;;15.57;;
4084;SDS011;2057;50.858;6.572;2023-03-04T03:48:08;40.00;;;15.13;;
4084;SDS011;2057;50.858;6.572;2023-03-04T03:50:33;43.80;;;15.93;;
4084;SDS011;2057;50.858;6.572;2023-03-04T03:53:01;49.05;;;16.55;;
4084;SDS011;2057;50.858;6.572;2023-03-04T03:55:27;47.10;;;15.70;;
4084;SDS011;2057;50.858;6.572;2023-03-04T03:57:53;65.07;;;17.67;;
4084;SDS011;2057;50.858;6.572;2023-03-04T04:00:18;59.87;;;18.00;;
4084;SDS011;2057;50.858;6.572;2023-03-04T04:02:44;43.43;;;16.13;;
4084;SDS011;2057;50.858;6.572;2023-03-04T04:05:10;57.23;;;15.43;;
4084;SDS011;2057;50.858;6.572;2023-03-04T04:07:36;49.45;;;17.70;;
4084;SDS011;2057;50.858;6.572;2023-03-04T04:10:02;61.17;;;17.43;;
4084;SDS011;2057;50.858;6.572;2023-03-04T04:12:29;52.58;;;15.95;;
4084;SDS011;2057;50.858;6.572;2023-03-04T04:14:55;56.70;;;15.03;;
4084;SDS011;2057;50.858;6.572;2023-03-04T04:17:20;58.47;;;15.90;;
4084;SDS011;2057;50.858;6.572;2023-03-04T04:19:46;56.77;;;15.37;;
4084;SDS011;2057;50.858;6.572;2023-03-04T04:22:15;40.63;;;15.47;;
4084;SDS011;2057;50.858;6.572;2023-03-04T04:24:45;38.22;;;14.63;;
4084;SDS011;2057;50.858;6.572;2023-03-04T04:27:11;64.57;;;17.10;;
4084;SDS011;2057;50.858;6.572;2023-03-04T04:29:37;38.47;;;14.53;;
4084;SDS011;2057;50.858;6.572;2023-03-04T04:32:02;52.13;;;14.10;;
4084;SDS011;2057;50.858;6.572;2023-03-04T04:34:28;43.00;;;14.70;;
4084;SDS011;2057;50.858;6.572;2023-03-04T04:36:53;71.40;;;17.60;;
4084;SDS011;2057;50.858;6.572;2023-03-04T04:39:19;45.93;;;16.20;;
4084;SDS011;2057;50.858;6.572;2023-03-04T04:41:44;38.10;;;17.73;;
4084;SDS011;2057;50.858;6.572;2023-03-04T04:44:10;70.17;;;18.10;;
4084;SDS011;2057;50.858;6.572;2023-03-04T04:46:36;47.08;;;16.10;;
4084;SDS011;2057;50.858;6.572;2023-03-04T04:49:03;48.05;;;16.27;;
4084;SDS011;2057;50.858;6.572;2023-03-04T04:51:29;55.28;;;19.98;;
4084;SDS011;2057;50.858;6.572;2023-03-04T04:53:55;50.13;;;15.97;;
4084;SDS011;2057;50.858;6.572;2023-03-04T04:56:23;50.03;;;15.77;;
4084;SDS011;2057;50.858;6.572;2023-03-04T04:58:55;43.88;;;14.52;;
4084;SDS011;2057;50.858;6.572;2023-03-04T05:01:22;34.13;;;10.90;;
4084;SDS011;2057;50.858;6.572;2023-03-04T05:03:48;34.43;;;10.47;;
4084;SDS011;2057;50.858;6.572;2023-03-04T05:06:14;50.17;;;12.95;;
4084;SDS011;2057;50.858;6.572;2023-03-04T05:08:40;34.22;;;10.65;;
4084;SDS011;2057;50.858;6.572;2023-03-04T05:11:06;41.47;;;9.53;;
4084;SDS011;2057;50.858;6.572;2023-03-04T05:13:32;52.97;;;11.20;;
4084;SDS011;2057;50.858;6.572;2023-03-04T05:16:00;52.42;;;10.50;;
4084;SDS011;2057;50.858;6.572;2023-03-04T05:18:28;51.75;;;13.25;;
4084;SDS011;2057;50.858;6.572;2023-03-04T05:20:55;60.20;;;12.77;;
4084;SDS011;2057;50.858;6.572;2023-03-04T05:23:22;40.20;;;11.50;;
4084;SDS011;2057;50.858;6.572;2023-03-04T05:25:49;40.90;;;10.40;;
4084;SDS011;2057;50.858;6.572;2023-03-04T05:28:17;48.75;;;13.40;;
4084;SDS011;2057;50.858;6.572;2023-03-04T05:30:42;38.33;;;10.40;;
4084;SDS011;2057;50.858;6.572;2023-03-04T05:33:09;54.25;;;12.25;;
4084;SDS011;2057;50.858;6.572;2023-03-04T05:35:37;54.28;;;10.40;;
4084;SDS011;2057;50.858;6.572;2023-03-04T05:38:04;31.27;;;11.38;;
4084;SDS011;2057;50.858;6.572;2023-03-04T05:40:31;35.25;;;9.10;;
4084;SDS011;2057;50.858;6.572;2023-03-04T05:42:56;38.73;;;8.43;;
4084;SDS011;2057;50.858;6.572;2023-03-04T05:45:22;38.27;;;8.80;;
4084;SDS011;2057;50.858;6.572;2023-03-04T05:47:48;22.00;;;6.95;;
4084;SDS011;2057;50.858;6.572;2023-03-04T05:50:13;39.30;;;7.37;;
4084;SDS011;2057;50.858;6.572;2023-03-04T05:52:39;31.10;;;7.30;;
4084;SDS011;2057;50.858;6.572;2023-03-04T05:55:05;34.33;;;10.10;;
4084;SDS011;2057;50.858;6.572;2023-03-04T05:57:30;41.43;;;12.87;;
4084;SDS011;2057;50.858;6.572;2023-03-04T05:59:56;34.23;;;8.30;;
4084;SDS011;2057;50.858;6.572;2023-03-04T06:02:21;37.70;;;9.80;;
4084;SDS011;2057;50.858;6.572;2023-03-04T06:04:49;38.20;;;8.27;;
4084;SDS011;2057;50.858;6.572;2023-03-04T06:07:15;29.17;;;7.90;;
4084;SDS011;2057;50.858;6.572;2023-03-04T06:09:40;19.20;;;7.23;;
4084;SDS011;2057;50.858;6.572;2023-03-04T06:12:07;38.10;;;7.18;;
4084;SDS011;2057;50.858;6.572;2023-03-04T06:14:35;24.63;;;6.47;;
4084;SDS011;2057;50.858;6.572;2023-03-04T06:17:00;28.53;;;7.30;;
4084;SDS011;2057;50.858;6.572;2023-03-04T06:19:28;39.22;;;7.47;;
4084;SDS011;2057;50.858;6.572;2023-03-04T06:21:53;43.63;;;9.37;;
4084;SDS011;2057;50.858;6.572;2023-03-04T06:24:19;51.57;;;11.37;;
4084;SDS011;2057;50.858;6.572;2023-03-04T06:26:44;47.57;;;11.27;;
4084;SDS011;2057;50.858;6.572;2023-03-04T06:29:09;37.43;;;8.37;;
4084;SDS011;2057;50.858;6.572;2023-03-04T06:31:35;46.10;;;6.67;;
4084;SDS011;2057;50.858;6.572;2023-03-04T06:34:00;28.23;;;6.53;;
4084;SDS011;2057;50.858;6.572;2023-03-04T06:36:26;31.90;;;7.40;;
4084;SDS011;2057;50.858;6.572;2023-03-04T06:38:51;30.07;;;6.17;;
4084;SDS011;2057;50.858;6.572;2023-03-04T06:41:17;25.40;;;5.67;;
4084;SDS011;2057;50.858;6.572;2023-03-04T06:43:42;26.93;;;5.73;;
4084;SDS011;2057;50.858;6.572;2023-03-04T06:46:07;16.20;;;6.43;;
4084;SDS011;2057;50.858;6.572;2023-03-04T06:48:33;26.37;;;4.77;;
4084;SDS011;2057;50.858;6.572;2023-03-04T06:51:04;34.43;;;5.57;;
4084;SDS011;2057;50.858;6.572;2023-03-04T06:53:33;44.80;;;6.10;;
4084;SDS011;2057;50.858;6.572;2023-03-04T06:55:59;37.07;;;5.77;;
4084;SDS011;2057;50.858;6.572;2023-03-04T07:01:09;27.05;;;5.70;;
4084;SDS011;2057;50.858;6.572;2023-03-04T07:03:40;21.58;;;5.78;;
4084;SDS011;2057;50.858;6.572;2023-03-04T07:06:06;30.63;;;5.67;;
4084;SDS011;2057;50.858;6.572;2023-03-04T07:08:33;15.55;;;5.63;;
4084;SDS011;2057;50.858;6.572;2023-03-04T07:10:58;40.37;;;5.80;;
4084;SDS011;2057;50.858;6.572;2023-03-04T07:13:27;27.67;;;6.30;;
4084;SDS011;2057;50.858;6.572;2023-03-04T07:15:52;28.73;;;7.60;;
4084;SDS011;2057;50.858;6.572;2023-03-04T07:18:19;28.90;;;5.20;;
4084;SDS011;2057;50.858;6.572;2023-03-04T07:20:45;18.53;;;5.40;;
4084;SDS011;2057;50.858;6.572;2023-03-04T07:23:10;28.90;;;4.67;;
4084;SDS011;2057;50.858;6.572;2023-03-04T07:25:35;22.13;;;3.90;;
4084;SDS011;2057;50.858;6.572;2023-03-04T07:28:01;26.77;;;6.40;;
4084;SDS011;2057;50.858;6.572;2023-03-04T07:30:26;18.67;;;4.40;;
4084;SDS011;2057;50.858;6.572;2023-03-04T07:32:52;20.83;;;5.20;;
4084;SDS011;2057;50.858;6.572;2023-03-04T07:35:20;33.10;;;5.43;;
4084;SDS011;2057;50.858;6.572;2023-03-04T07:37:46;28.97;;;4.97;;
4084;SDS011;2057;50.858;6.572;2023-03-04T07:40:11;20.43;;;4.83;;
4084;SDS011;2057;50.858;6.572;2023-03-04T07:42:37;43.03;;;5.57;;
4084;SDS011;2057;50.858;6.572;2023-03-04T07:45:03;24.27;;;4.57;;
4084;SDS011;2057;50.858;6.572;2023-03-04T07:47:32;26.75;;;4.95;;
4084;SDS011;2057;50.858;6.572;2023-03-04T07:49:58;20.10;;;4.20;;
4084;SDS011;2057;50.858;6.572;2023-03-04T07:52:25;14.80;;;4.57;;
4084;SDS011;2057;50.858;6.572;2023-03-04T07:54:50;14.20;;;3.93;;
4084;SDS011;2057;50.858;6.572;2023-03-04T07:57:16;17.53;;;3.20;;
4084;SDS011;2057;50.858;6.572;2023-03-04T07:59:41;25.80;;;4.87;;
4084;SDS011;2057;50.858;6.572;2023-03-04T08:02:10;24.02;;;3.50;;
4084;SDS011;2057;50.858;6.572;2023-03-04T08:04:35;24.70;;;4.93;;
4084;SDS011;2057;50.858;6.572;2023-03-04T08:07:00;24.93;;;4.00;;
4084;SDS011;2057;50.858;6.572;2023-03-04T08:09:33;16.77;;;3.63;;
4084;SDS011;2057;50.858;6.572;2023-03-04T08:11:58;17.13;;;3.30;;
4084;SDS011;2057;50.858;6.572;2023-03-04T08:14:24;14.97;;;3.23;;
4084;SDS011;2057;50.858;6.572;2023-03-04T08:16:51;23.97;;;4.50;;
4084;SDS011;2057;50.858;6.572;2023-03-04T08:19:17;17.00;;;4.00;;
4084;SDS011;2057;50.858;6.572;2023-03-04T08:21:42;30.70;;;4.70;;
4084;SDS011;2057;50.858;6.572;2023-03-04T08:24:09;22.07;;;3.60;;
4084;SDS011;2057;50.858;6.572;2023-03-04T08:26:36;16.90;;;3.55;;
4084;SDS011;2057;50.858;6.572;2023-03-04T08:29:06;28.33;;;4.03;;
4084;SDS011;2057;50.858;6.572;2023-03-04T08:31:32;16.17;;;3.53;;
4084;SDS011;2057;50.858;6.572;2023-03-04T08:33:57;22.70;;;5.23;;
4084;SDS011;2057;50.858;6.572;2023-03-04T08:36:23;15.63;;;3.70;;
4084;SDS011;2057;50.858;6.572;2023-03-04T08:38:48;12.10;;;2.93;;
4084;SDS011;2057;50.858;6.572;2023-03-04T08:41:14;13.60;;;2.80;;
4084;SDS011;2057;50.858;6.572;2023-03-04T08:43:40;23.90;;;3.60;;
4084;SDS011;2057;50.858;6.572;2023-03-04T08:46:05;11.88;;;3.50;;
4084;SDS011;2057;50.858;6.572;2023-03-04T08:48:31;18.13;;;4.30;;
4084;SDS011;2057;50.858;6.572;2023-03-04T08:50:57;18.40;;;3.23;;
4084;SDS011;2057;50.858;6.572;2023-03-04T08:53:22;15.77;;;2.60;;
4084;SDS011;2057;50.858;6.572;2023-03-04T08:55:49;20.83;;;3.60;;
4084;SDS011;2057;50.858;6.572;2023-03-04T08:58:16;45.03;;;3.95;;
4084;SDS011;2057;50.858;6.572;2023-03-04T09:00:44;18.42;;;2.58;;
4084;SDS011;2057;50.858;6.572;2023-03-04T09:03:12;16.23;;;2.80;;
4084;SDS011;2057;50.858;6.572;2023-03-04T09:05:38;16.02;;;3.35;;
4084;SDS011;2057;50.858;6.572;2023-03-04T09:08:04;14.37;;;3.83;;
4084;SDS011;2057;50.858;6.572;2023-03-04T09:10:30;12.97;;;3.13;;
4084;SDS011;2057;50.858;6.572;2023-03-04T09:12:56;25.47;;;4.17;;
4084;SDS011;2057;50.858;6.572;2023-03-04T09:15:22;14.70;;;3.53;;
4084;SDS011;2057;50.858;6.572;2023-03-04T09:17:47;33.03;;;6.23;;
4084;SDS011;2057;50.858;6.572;2023-03-04T09:20:15;15.03;;;3.00;;
4084;SDS011;2057;50.858;6.572;2023-03-04T09:22:41;19.88;;;3.80;;
4084;SDS011;2057;50.858;6.572;2023-03-04T09:25:07;17.80;;;3.42;;
4084;SDS011;2057;50.858;6.572;2023-03-04T09:27:35;29.67;;;3.85;;
4084;SDS011;2057;50.858;6.572;2023-03-04T09:30:00;10.13;;;3.00;;
4084;SDS011;2057;50.858;6.572;2023-03-04T09:32:26;16.43;;;4.40;;
4084;SDS011;2057;50.858;6.572;2023-03-04T09:34:51;14.00;;;3.00;;
4084;SDS011;2057;50.858;6.572;2023-03-04T09:37:16;12.80;;;4.60;;
4084;SDS011;2057;50.858;6.572;2023-03-04T09:39:42;21.27;;;4.00;;
4084;SDS011;2057;50.858;6.572;2023-03-04T09:42:08;19.03;;;3.83;;
4084;SDS011;2057;50.858;6.572;2023-03-04T09:44:39;17.52;;;3.97;;
4084;SDS011;2057;50.858;6.572;2023-03-04T09:47:08;12.93;;;4.97;;
4084;SDS011;2057;50.858;6.572;2023-03-04T09:49:39;16.83;;;4.70;;
4084;SDS011;2057;50.858;6.572;2023-03-04T10:00:03;22.55;;;4.90;;
4084;SDS011;2057;50.858;6.572;2023-03-04T10:02:45;11.95;;;3.53;;
4084;SDS011;2057;50.858;6.572;2023-03-04T10:05:19;7.82;;;3.58;;
4084;SDS011;2057;50.858;6.572;2023-03-04T10:07:57;19.08;;;4.53;;
4084;SDS011;2057;50.858;6.572;2023-03-04T10:10:26;8.82;;;2.35;;
4084;SDS011;2057;50.858;6.572;2023-03-04T10:12:56;16.85;;;3.83;;
4084;SDS011;2057;50.858;6.572;2023-03-04T10:15:41;19.52;;;3.67;;
4084;SDS011;2057;50.858;6.572;2023-03-04T10:18:13;32.08;;;4.35;;
4084;SDS011;2057;50.858;6.572;2023-03-04T10:20:53;19.70;;;3.58;;
4084;SDS011;2057;50.858;6.572;2023-03-04T10:23:23;17.50;;;3.47;;
4084;SDS011;2057;50.858;6.572;2023-03-04T10:28:28;14.20;;;2.80;;
4084;SDS011;2057;50.858;6.572;2023-03-04T10:33:44;4.35;;;1.98;;
4084;SDS011;2057;50.858;6.572;2023-03-04T10:38:44;6.38;;;2.10;;
4084;SDS011;2057;50.858;6.572;2023-03-04T10:41:17;11.67;;;2.57;;
4084;SDS011;2057;50.858;6.572;2023-03-04T10:43:49;12.73;;;2.53;;
4084;SDS011;2057;50.858;6.572;2023-03-04T10:46:24;27.23;;;3.30;;
4084;SDS011;2057;50.858;6.572;2023-03-04T10:48:52;13.18;;;2.95;;
4084;SDS011;2057;50.858;6.572;2023-03-04T10:51:19;6.72;;;2.03;;
4084;SDS011;2057;50.858;6.572;2023-03-04T10:53:48;10.43;;;2.03;;
4084;SDS011;2057;50.858;6.572;2023-03-04T10:56:29;10.05;;;2.08;;
4084;SDS011;2057;50.858;6.572;2023-03-04T11:01:55;20.40;;;3.15;;
4084;SDS011;2057;50.858;6.572;2023-03-04T11:04:25;5.10;;;2.30;;
4084;SDS011;2057;50.858;6.572;2023-03-04T11:06:52;9.23;;;2.60;;
4084;SDS011;2057;50.858;6.572;2023-03-04T11:09:22;12.48;;;2.25;;
4084;SDS011;2057;50.858;6.572;2023-03-04T11:11:53;12.32;;;2.35;;
4084;SDS011;2057;50.858;6.572;2023-03-04T11:17:17;23.98;;;4.60;;
4084;SDS011;2057;50.858;6.572;2023-03-04T11:19:51;10.52;;;2.40;;
4084;SDS011;2057;50.858;6.572;2023-03-04T11:22:24;20.13;;;2.47;;
4084;SDS011;2057;50.858;6.572;2023-03-04T11:24:56;6.55;;;1.67;;
4084;SDS011;2057;50.858;6.572;2023-03-04T11:27:35;5.50;;;1.88;;
4084;SDS011;2057;50.858;6.572;2023-03-04T11:33:13;10.32;;;2.17;;
4084;SDS011;2057;50.858;6.572;2023-03-04T11:35:53;13.82;;;2.45;;
4084;SDS011;2057;50.858;6.572;2023-03-04T11:38:45;5.80;;;2.58;;
4084;SDS011;2057;50.858;6.572;2023-03-04T11:41:14;4.90;;;2.05;;
4084;SDS011;2057;50.858;6.572;2023-03-04T11:43:56;6.97;;;2.28;;
4084;SDS011;2057;50.858;6.572;2023-03-04T12:01:20;10.32;;;3.30;;
4084;SDS011;2057;50.858;6.572;2023-03-04T12:06:17;8.07;;;2.45;;
4084;SDS011;2057;50.858;6.572;2023-03-04T12:09:02;10.63;;;2.80;;
4084;SDS011;2057;50.858;6.572;2023-03-04T12:23:24;10.90;;;1.92;;
4084;SDS011;2057;50.858;6.572;2023-03-04T12:28:48;4.40;;;2.03;;
4084;SDS011;2057;50.858;6.572;2023-03-04T12:31:35;14.38;;;2.70;;
4084;SDS011;2057;50.858;6.572;2023-03-04T12:37:17;9.32;;;3.13;;
4084;SDS011;2057;50.858;6.572;2023-03-04T12:49:01;13.82;;;2.83;;
4084;SDS011;2057;50.858;6.572;2023-03-04T12:57:05;3.47;;;1.65;;
4084;SDS011;2057;50.858;6.572;2023-03-04T13:00:04;5.25;;;1.80;;
4084;SDS011;2057;50.858;6.572;2023-03-04T13:02:44;16.25;;;2.00;;
4084;SDS011;2057;50.858;6.572;2023-03-04T13:05:22;4.45;;;2.03;;
4084;SDS011;2057;50.858;6.572;2023-03-04T13:08:22;5.20;;;1.50;;
4084;SDS011;2057;50.858;6.572;2023-03-04T13:11:32;11.23;;;2.55;;
4084;SDS011;2057;50.858;6.572;2023-03-04T13:14:03;6.97;;;2.70;;
4084;SDS011;2057;50.858;6.572;2023-03-04T13:28:04;3.60;;;2.45;;
4084;SDS011;2057;50.858;6.572;2023-03-04T13:43:35;5.27;;;2.37;;
4084;SDS011;2057;50.858;6.572;2023-03-04T13:48:45;6.57;;;2.20;;
4084;SDS011;2057;50.858;6.572;2023-03-04T13:51:31;6.82;;;1.90;;
4084;SDS011;2057;50.858;6.572;2023-03-04T13:56:39;16.75;;;2.40;;
4084;SDS011;2057;50.858;6.572;2023-03-04T14:01:33;6.90;;;2.17;;
4084;SDS011;2057;50.858;6.572;2023-03-04T14:07:01;8.98;;;2.58;;
4084;SDS011;2057;50.858;6.572;2023-03-04T14:10:00;7.72;;;2.33;;
4084;SDS011;2057;50.858;6.572;2023-03-04T14:12:34;6.57;;;2.10;;
4084;SDS011;2057;50.858;6.572;2023-03-04T14:15:05;4.40;;;2.20;;
4084;SDS011;2057;50.858;6.572;2023-03-04T14:17:45;4.97;;;2.13;;
4084;SDS011;2057;50.858;6.572;2023-03-04T14:20:26;13.52;;;2.83;;
4084;SDS011;2057;50.858;6.572;2023-03-04T14:22:58;7.75;;;2.78;;
4084;SDS011;2057;50.858;6.572;2023-03-04T14:25:26;6.03;;;2.00;;
4084;SDS011;2057;50.858;6.572;2023-03-04T14:28:13;26.45;;;2.90;;
4084;SDS011;2057;50.858;6.572;2023-03-04T14:30:49;8.57;;;2.60;;
4084;SDS011;2057;50.858;6.572;2023-03-04T14:33:18;2.88;;;2.30;;
4084;SDS011;2057;50.858;6.572;2023-03-04T14:35:48;23.45;;;6.22;;
4084;SDS011;2057;50.858;6.572;2023-03-04T14:41:38;10.15;;;3.63;;
4084;SDS011;2057;50.858;6.572;2023-03-04T14:43:49;11.18;;;5.20;;
4084;SDS011;2057;50.858;6.572;2023-03-04T14:46:21;10.45;;;3.90;;
4084;SDS011;2057;50.858;6.572;2023-03-04T14:48:52;13.02;;;2.67;;
4084;SDS011;2057;50.858;6.572;2023-03-04T14:53:55;6.20;;;2.92;;
4084;SDS011;2057;50.858;6.572;2023-03-04T14:56:26;9.35;;;2.45;;
4084;SDS011;2057;50.858;6.572;2023-03-04T14:58:54;10.35;;;3.25;;
4084;SDS011;2057;50.858;6.572;2023-03-04T15:01:22;3.77;;;1.97;;
4084;SDS011;2057;50.858;6.572;2023-03-04T15:06:32;5.82;;;3.30;;
4084;SDS011;2057;50.858;6.572;2023-03-04T15:09:03;2.60;;;2.40;;
4084;SDS011;2057;50.858;6.572;2023-03-04T15:11:32;5.43;;;2.60;;
4084;SDS011;2057;50.858;6.572;2023-03-04T15:17:04;6.80;;;4.47;;
4084;SDS011;2057;50.858;6.572;2023-03-04T15:19:32;14.73;;;3.57;;
4084;SDS011;2057;50.858;6.572;2023-03-04T15:22:04;17.65;;;3.90;;
4084;SDS011;2057;50.858;6.572;2023-03-04T15:24:30;13.07;;;3.10;;
4084;SDS011;2057;50.858;6.572;2023-03-04T15:26:55;5.33;;;2.60;;
4084;SDS011;2057;50.858;6.572;2023-03-04T15:29:21;8.30;;;3.10;;
4084;SDS011;2057;50.858;6.572;2023-03-04T15:31:46;7.43;;;4.23;;
4084;SDS011;2057;50.858;6.572;2023-03-04T15:34:16;7.20;;;3.10;;
4084;SDS011;2057;50.858;6.572;2023-03-04T15:36:46;5.35;;;2.70;;
4084;SDS011;2057;50.858;6.572;2023-03-04T15:39:16;7.53;;;3.00;;
4084;SDS011;2057;50.858;6.572;2023-03-04T15:41:51;6.68;;;3.08;;
4084;SDS011;2057;50.858;6.572;2023-03-04T15:44:17;6.83;;;2.30;;
4084;SDS011;2057;50.858;6.572;2023-03-04T15:46:42;7.33;;;3.23;;
4084;SDS011;2057;50.858;6.572;2023-03-04T15:49:07;8.43;;;3.03;;
4084;SDS011;2057;50.858;6.572;2023-03-04T15:51:33;7.50;;;3.30;;
4084;SDS011;2057;50.858;6.572;2023-03-04T15:53:58;11.90;;;3.20;;
4084;SDS011;2057;50.858;6.572;2023-03-04T15:56:29;6.35;;;2.80;;
4084;SDS011;2057;50.858;6.572;2023-03-04T15:58:56;6.38;;;2.83;;
4084;SDS011;2057;50.858;6.572;2023-03-04T16:01:25;5.63;;;2.35;;
4084;SDS011;2057;50.858;6.572;2023-03-04T16:03:54;7.65;;;2.45;;
4084;SDS011;2057;50.858;6.572;2023-03-04T16:06:20;3.80;;;2.90;;
4084;SDS011;2057;50.858;6.572;2023-03-04T16:08:49;5.43;;;2.65;;
4084;SDS011;2057;50.858;6.572;2023-03-04T16:11:20;10.70;;;2.90;;
4084;SDS011;2057;50.858;6.572;2023-03-04T16:13:48;11.73;;;3.60;;
4084;SDS011;2057;50.858;6.572;2023-03-04T16:16:16;5.77;;;3.00;;
4084;SDS011;2057;50.858;6.572;2023-03-04T16:18:41;8.13;;;2.97;;
4084;SDS011;2057;50.858;6.572;2023-03-04T16:21:09;9.40;;;3.23;;
4084;SDS011;2057;50.858;6.572;2023-03-04T16:23:38;8.15;;;3.28;;
4084;SDS011;2057;50.858;6.572;2023-03-04T16:26:08;7.20;;;3.80;;
4084;SDS011;2057;50.858;6.572;2023-03-04T16:28:38;5.00;;;3.67;;
4084;SDS011;2057;50.858;6.572;2023-03-04T16:31:04;6.50;;;3.50;;
4084;SDS011;2057;50.858;6.572;2023-03-04T16:33:30;5.05;;;3.13;;
4084;SDS011;2057;50.858;6.572;2023-03-04T16:35:56;5.17;;;3.23;;
4084;SDS011;2057;50.858;6.572;2023-03-04T16:38:28;7.03;;;3.17;;
4084;SDS011;2057;50.858;6.572;2023-03-04T16:40:55;11.20;;;4.90;;
4084;SDS011;2057;50.858;6.572;2023-03-04T16:43:23;4.60;;;3.35;;
4084;SDS011;2057;50.858;6.572;2023-03-04T16:45:49;14.53;;;3.70;;
4084;SDS011;2057;50.858;6.572;2023-03-04T16:48:15;5.60;;;3.80;;
4084;SDS011;2057;50.858;6.572;2023-03-04T16:50:44;11.18;;;4.63;;
4084;SDS011;2057;50.858;6.572;2023-03-04T16:53:16;7.30;;;3.67;;
4084;SDS011;2057;50.858;6.572;2023-03-04T16:55:47;12.48;;;4.00;;
4084;SDS011;2057;50.858;6.572;2023-03-04T16:58:12;6.90;;;4.70;;
4084;SDS011;2057;50.858;6.572;2023-03-04T17:00:38;9.10;;;4.00;;
4084;SDS011;2057;50.858;6.572;2023-03-04T17:03:03;17.87;;;6.33;;
4084;SDS011;2057;50.858;6.572;2023-03-04T17:05:29;13.70;;;5.10;;
4084;SDS011;2057;50.858;6.572;2023-03-04T17:07:56;8.55;;;4.68;;
4084;SDS011;2057;50.858;6.572;2023-03-04T17:10:24;9.70;;;5.30;;